Time;durP1;ratioP1;P1;durP2;ratioP2;P2;SDS_P1;SDS_P2;PMS_P1;PMS_P2;Temp;Humidity;BMP_temperature;BMP_pressure;BME280_temperature;BME280_humidity;BME280_pressure;Samples;Min_cycle;Max_cycle;Signal;HPM_P1;HPM_P2
2023/06/19 00:01:25;;;;;;;14.70;9.70;;;;;;;14.70;88.98;100427.27;221287;1264;140680;-94
2023/06/19 00:06:25;;;;;;;13.70;10.50;;;;;;;14.64;89.34;100424.68;221956;1266;111530;-91
2023/06/19 00:11:26;;;;;;;15.80;11.30;;;;;;;14.60;89.46;100424.64;221366;1264;141046;-90
2023/06/19 00:16:27;;;;;;;16.20;10.90;;;;;;;14.57;90.29;100421.80;222218;1264;139219;-91
2023/06/19 00:21:27;;;;;;;12.90;9.40;;;;;;;14.50;90.54;100422.92;221318;1264;141102;-90
2023/06/19 00:26:28;;;;;;;16.00;10.50;;;;;;;14.44;90.82;100420.27;221888;1267;139202;-90
2023/06/19 00:31:29;;;;;;;13.90;10.60;;;;;;;14.38;91.10;100418.25;221288;1264;140915;-90
2023/06/19 00:36:30;;;;;;;14.00;10.30;;;;;;;14.34;90.42;100418.59;222122;1264;97922;-91
2023/06/19 00:41:32;;;;;;;13.40;9.80;;;;;;;14.29;89.94;100412.99;221434;1267;140352;-90
2023/06/19 00:46:32;;;;;;;14.50;9.70;;;;;;;14.25;90.48;100412.77;222013;1263;139063;-91
2023/06/19 00:51:33;;;;;;;13.60;10.00;;;;;;;14.20;91.53;100406.14;221311;1266;140851;-91
2023/06/19 00:56:37;;;;;;;13.70;10.30;;;;;;;14.16;91.91;100395.78;221917;1264;139230;-89
2023/06/19 01:01:37;;;;;;;15.70;10.30;;;;;;;14.10;92.51;100393.34;221371;1264;141384;-87
2023/06/19 01:06:58;;;;;;;13.90;10.00;;;;;;;14.06;92.44;100395.02;221924;1264;97836;-89
2023/06/19 01:12:06;;;;;;;12.00;9.20;;;;;;;14.01;93.06;100395.20;221223;1264;139940;-89
2023/06/19 01:17:07;;;;;;;14.90;9.70;;;;;;;13.96;93.18;100398.30;221984;1264;139153;-89
2023/06/19 01:22:07;;;;;;;12.50;9.40;;;;;;;13.89;92.38;100396.41;221359;1264;139903;-91
2023/06/19 01:27:08;;;;;;;13.70;9.90;;;;;;;13.88;92.92;100398.64;221954;1264;139239;-91
2023/06/19 01:32:15;;;;;;;13.10;9.30;;;;;;;13.82;92.79;100393.75;221350;1264;140652;-90
2023/06/19 01:37:16;;;;;;;15.70;10.10;;;;;;;13.74;92.30;100388.63;221821;1266;139882;-91
2023/06/19 01:42:17;;;;;;;13.60;8.40;;;;;;;13.72;92.87;100386.58;221742;1264;140407;-90
2023/06/19 01:47:19;;;;;;;13.20;9.00;;;;;;;13.69;92.17;100389.60;221872;1264;138878;-90
2023/06/19 01:52:21;;;;;;;12.20;8.70;;;;;;;13.67;92.78;100390.39;221394;1264;140494;-92
2023/06/19 01:57:21;;;;;;;14.10;10.10;;;;;;;13.62;93.18;100394.98;221998;1264;139047;-90
2023/06/19 02:02:22;;;;;;;14.10;9.30;;;;;;;13.55;93.08;100392.46;221413;1264;140271;-90
2023/06/19 02:07:22;;;;;;;14.70;10.10;;;;;;;13.50;93.88;100387.41;221892;1264;139188;-90
2023/06/19 02:12:23;;;;;;;14.20;10.50;;;;;;;13.46;94.09;100386.00;221556;1266;140892;-90
2023/06/19 02:17:23;;;;;;;13.50;10.60;;;;;;;13.43;94.31;100390.27;221904;1267;139207;-91
2023/06/19 02:22:24;;;;;;;15.00;10.90;;;;;;;13.39;94.55;100397.86;221293;1264;140197;-93
2023/06/19 02:27:25;;;;;;;15.20;11.20;;;;;;;13.34;94.83;100399.04;221880;1266;139248;-91
2023/06/19 02:32:26;;;;;;;13.80;10.40;;;;;;;13.28;94.80;100395.96;221217;1267;140714;-91
2023/06/19 02:37:29;;;;;;;14.50;9.90;;;;;;;13.27;95.49;100401.17;221958;1266;139219;-92
2023/06/19 02:42:30;;;;;;;15.40;11.20;;;;;;;13.23;95.87;100397.71;221581;1266;140062;-90
2023/06/19 02:47:33;;;;;;;15.10;10.70;;;;;;;13.20;96.30;100400.71;221976;1264;139156;-90
2023/06/19 02:52:34;;;;;;;16.40;11.60;;;;;;;13.18;96.58;100403.15;221422;1264;139454;-91
2023/06/19 02:57:34;;;;;;;16.70;11.30;;;;;;;13.16;95.60;100406.79;221910;1264;139266;-90
2023/06/19 03:02:35;;;;;;;15.40;11.00;;;;;;;13.16;96.91;100405.52;221427;1265;141528;-90
2023/06/19 03:07:36;;;;;;;17.30;12.80;;;;;;;13.16;97.32;100401.50;221884;1267;139201;-90
2023/06/19 03:12:37;;;;;;;17.80;13.40;;;;;;;13.16;96.93;100401.11;221438;1264;140590;-89
2023/06/19 03:17:37;;;;;;;18.50;13.20;;;;;;;13.16;97.98;100396.52;221884;1265;139315;-89
2023/06/19 03:22:40;;;;;;;18.30;12.50;;;;;;;13.19;98.54;100389.49;221189;1267;141036;-89
2023/06/19 03:27:41;;;;;;;14.70;11.20;;;;;;;13.20;98.62;100385.16;221898;1264;139188;-90
2023/06/19 03:32:41;;;;;;;16.50;11.70;;;;;;;13.21;98.62;100386.42;221217;1264;141508;-91
2023/06/19 03:37:42;;;;;;;17.50;12.50;;;;;;;13.23;97.98;100391.23;221885;1266;139768;-90
2023/06/19 03:42:42;;;;;;;15.10;11.50;;;;;;;13.28;99.13;100389.50;221455;1267;140617;-90
2023/06/19 03:47:43;;;;;;;24.20;17.10;;;;;;;13.32;98.93;100383.40;222196;1267;139035;-89
2023/06/19 03:52:45;;;;;;;22.00;17.70;;;;;;;13.40;99.65;100380.80;221435;1265;140688;-90
2023/06/19 03:57:47;;;;;;;23.50;17.40;;;;;;;13.49;99.85;100374.53;221947;1264;139217;-93
2023/06/19 04:03:03;;;;;;;25.50;19.80;;;;;;;13.56;100.00;100381.63;221318;1267;140593;-90
2023/06/19 04:08:04;;;;;;;29.60;21.40;;;;;;;13.68;100.00;100390.06;221997;1267;138359;-92
2023/06/19 04:13:06;;;;;;;29.90;23.10;;;;;;;13.93;100.00;100390.63;221265;1265;139989;-92
2023/06/19 04:18:27;;;;;;;32.90;24.30;;;;;;;14.07;100.00;100393.36;221529;1266;107206;-92
2023/06/19 04:23:49;;;;;;;32.70;23.80;;;;;;;14.17;100.00;100394.27;221084;1270;139912;-90
2023/06/19 04:28:52;;;;;;;32.10;24.70;;;;;;;14.31;100.00;100395.74;221252;1266;141010;-91
2023/06/19 04:34:17;;;;;;;34.00;24.90;;;;;;;14.52;100.00;100404.81;221751;1266;139438;-92
2023/06/19 04:39:19;;;;;;;30.00;22.40;;;;;;;14.74;100.00;100411.88;221209;1269;140258;-91
2023/06/19 04:44:23;;;;;;;31.80;23.30;;;;;;;15.01;100.00;100411.15;221602;1266;139493;-92
2023/06/19 05:01:27;;;;;;;31.10;22.40;;;;;;;15.80;100.00;100412.38;220409;1274;140755;-91
2023/06/19 05:06:28;;;;;;;27.70;22.90;;;;;;;16.08;100.00;100408.34;220937;1274;97941;-94
2023/06/19 05:11:28;;;;;;;31.70;23.40;;;;;;;16.31;100.00;100409.65;220306;1276;141279;-91
2023/06/19 05:22:31;;;;;;;32.30;22.30;;;;;;;17.10;100.00;100418.33;220057;1274;140838;-93
2023/06/19 05:27:34;;;;;;;28.80;21.70;;;;;;;17.68;100.00;100413.33;220821;1274;139431;-92
2023/06/19 05:32:36;;;;;;;33.80;21.20;;;;;;;18.39;99.32;100413.23;221221;1267;142003;-92
2023/06/19 05:37:38;;;;;;;28.50;20.30;;;;;;;19.14;95.90;100425.43;221933;1266;139311;-94
2023/06/19 05:42:44;;;;;;;34.70;18.00;;;;;;;19.98;93.91;100427.09;221302;1266;145450;-91
2023/06/19 05:47:44;;;;;;;24.90;15.50;;;;;;;20.87;90.43;100429.64;221678;1267;139290;-90
2023/06/19 05:52:49;;;;;;;21.60;14.30;;;;;;;21.81;85.13;100437.86;221369;1267;142223;-91
2023/06/19 06:09:46;;;;;;;15.10;10.60;;;;;;;24.19;71.58;100460.11;220498;1271;140918;-92
2023/06/19 06:14:57;;;;;;;16.00;9.70;;;;;;;24.63;68.70;100461.64;221002;1276;137784;-95
2023/06/19 06:26:19;;;;;;;15.10;8.80;;;;;;;25.75;63.67;100462.59;220846;1280;137844;-93
2023/06/19 06:37:29;;;;;;;16.00;9.20;;;;;;;26.66;59.75;100475.88;214020;1274;10195238;-96
2023/06/19 06:48:28;;;;;;;12.10;8.10;;;;;;;27.61;55.46;100484.52;222274;1264;138403;-93
2023/06/19 06:53:31;;;;;;;10.10;6.70;;;;;;;27.94;53.79;100479.83;221512;1266;141103;-95
2023/06/19 06:58:32;;;;;;;11.80;7.70;;;;;;;28.34;53.67;100473.27;222123;1264;138657;-95
2023/06/19 07:03:55;;;;;;;9.60;6.10;;;;;;;28.87;51.23;100466.14;221540;1267;138786;-96
2023/06/19 07:08:56;;;;;;;6.90;4.70;;;;;;;29.37;47.83;100466.53;221509;1267;139117;-91
2023/06/19 07:13:57;;;;;;;8.30;5.60;;;;;;;29.65;47.47;100466.89;222341;1264;138197;-96
2023/06/19 07:18:57;;;;;;;9.80;5.60;;;;;;;30.00;45.91;100471.98;221568;1264;140127;-95
2023/06/19 07:24:00;;;;;;;8.80;5.70;;;;;;;30.29;45.25;100475.27;222028;1264;138300;-94
2023/06/19 07:29:00;;;;;;;8.80;5.50;;;;;;;30.34;43.22;100471.67;221557;1266;140019;-95
2023/06/19 07:34:01;;;;;;;9.30;5.80;;;;;;;30.51;43.26;100468.73;221969;1266;138203;-95
2023/06/19 07:39:03;;;;;;;8.90;5.30;;;;;;;30.71;42.20;100471.90;221568;1265;139506;-95
2023/06/19 07:44:04;;;;;;;9.60;5.70;;;;;;;31.13;42.08;100469.20;222057;1266;137095;-93
2023/06/19 07:49:04;;;;;;;9.10;5.50;;;;;;;31.48;39.96;100470.90;221523;1267;140804;-92
2023/06/19 07:54:05;;;;;;;10.40;5.10;;;;;;;31.46;39.25;100476.70;221986;1267;138479;-96
2023/06/19 07:59:08;;;;;;;6.90;4.70;;;;;;;31.76;39.10;100476.95;221539;1266;140335;-94
2023/06/19 08:04:09;;;;;;;9.40;5.20;;;;;;;31.77;38.66;100474.17;222233;1266;138714;-95
2023/06/19 08:09:09;;;;;;;10.00;6.10;;;;;;;32.09;38.69;100474.99;221519;1268;139404;-90
2023/06/19 08:14:10;;;;;;;8.80;5.20;;;;;;;32.33;37.78;100470.30;222047;1264;138472;-94
2023/06/19 08:19:10;;;;;;;7.30;5.00;;;;;;;32.71;37.23;100468.52;221567;1264;140062;-94
2023/06/19 08:29:31;;;;;;;10.90;6.40;;;;;;;33.22;36.15;100465.52;219817;1267;139773;-83
2023/06/19 08:34:31;;;;;;;9.90;6.40;;;;;;;33.66;35.30;100465.57;220138;1262;139568;-83
2023/06/19 08:39:32;;;;;;;13.10;6.20;;;;;;;33.88;34.82;100457.51;219547;1262;140020;-83
2023/06/19 08:44:34;;;;;;;54.70;9.30;;;;;;;34.01;34.67;100457.30;220126;1263;138600;-85
2023/06/19 08:49:35;;;;;;;68.00;11.00;;;;;;;34.39;33.18;100463.73;219498;1266;139746;-83
2023/06/19 08:54:43;;;;;;;35.50;7.80;;;;;;;34.63;32.79;100449.45;220048;1265;98388;-83
2023/06/19 08:59:50;;;;;;;13.60;7.40;;;;;;;34.96;32.86;100442.70;219450;1266;141756;-83
2023/06/19 09:04:51;;;;;;;9.90;7.10;;;;;;;35.40;32.05;100442.90;220276;1266;138774;-84
2023/06/19 09:09:51;;;;;;;9.30;6.70;;;;;;;35.78;31.89;100438.89;220293;1268;140946;-84
2023/06/19 09:14:52;;;;;;;8.90;6.20;;;;;;;36.47;31.29;100428.87;221497;1267;138401;-85
2023/06/19 09:19:57;;;;;;;14.90;6.70;;;;;;;36.68;29.58;100432.95;220950;1266;141611;-85
2023/06/19 09:25:01;;;;;;;9.00;6.30;;;;;;;36.55;29.53;100431.11;221419;1267;99943;-86
2023/06/19 09:30:04;;;;;;;9.40;6.00;;;;;;;36.93;29.20;100427.51;220857;1265;140471;-85
2023/06/19 09:35:05;;;;;;;8.80;6.50;;;;;;;37.28;28.28;100427.30;221272;1267;138210;-84
2023/06/19 09:40:13;;;;;;;8.40;6.10;;;;;;;37.29;27.06;100426.16;220909;1265;140097;-85
2023/06/19 09:45:15;;;;;;;10.80;6.30;;;;;;;37.61;26.78;100424.58;221236;1264;139043;-85
2023/06/19 09:50:16;;;;;;;9.60;6.40;;;;;;;37.58;26.42;100422.11;223000;1263;141635;-85
2023/06/19 09:55:18;;;;;;;8.70;6.20;;;;;;;37.79;26.35;100419.52;223747;1263;96639;-84
2023/06/19 10:00:22;;;;;;;9.50;6.10;;;;;;;38.38;25.93;100413.50;220244;1265;140665;-84
2023/06/19 10:05:30;;;;;;;8.90;6.50;;;;;;;38.19;23.74;100415.66;220443;1264;138149;-84
2023/06/19 10:10:31;;;;;;;9.00;6.00;;;;;;;37.56;24.50;100418.23;219656;1265;144085;-84
2023/06/19 10:15:31;;;;;;;9.70;6.20;;;;;;;38.06;25.66;100415.76;220264;1268;138287;-85
2023/06/19 10:20:40;;;;;;;9.00;6.10;;;;;;;38.96;26.14;100404.55;219867;1267;140283;-84
2023/06/19 10:25:43;;;;;;;8.10;5.90;;;;;;;39.70;25.45;100395.56;220029;1264;138152;-85
2023/06/19 10:30:43;;;;;;;8.60;6.20;;;;;;;40.29;24.21;100394.81;220338;1268;141689;-85
2023/06/19 10:35:44;;;;;;;9.10;6.00;;;;;;;40.50;24.50;100393.01;220186;1267;138535;-86
2023/06/19 10:40:46;;;;;;;9.80;6.00;;;;;;;40.99;23.71;100392.77;219688;1264;140125;-86
2023/06/19 10:45:46;;;;;;;24.60;7.30;;;;;;;41.34;22.34;100392.55;220756;1266;138096;-84
2023/06/19 10:50:48;;;;;;;42.60;8.80;;;;;;;40.99;21.85;100391.59;219946;1266;141175;-86
2023/06/19 10:55:48;;;;;;;12.30;6.90;;;;;;;40.67;21.93;100392.19;221007;1267;139874;-86
2023/06/19 11:00:49;;;;;;;10.50;7.10;;;;;;;40.10;22.22;100389.73;221018;1266;140247;-86
2023/06/19 11:05:50;;;;;;;193.50;23.30;;;;;;;39.92;22.34;100387.80;221595;1267;138307;-84
2023/06/19 11:10:50;;;;;;;11.00;6.30;;;;;;;39.82;22.20;100385.98;220738;1268;141133;-85
2023/06/19 11:15:51;;;;;;;10.30;6.80;;;;;;;39.62;22.24;100378.04;221364;1266;138461;-86
2023/06/19 11:20:52;;;;;;;8.40;6.30;;;;;;;39.78;22.45;100376.39;221015;1264;141706;-83
2023/06/19 11:25:53;;;;;;;9.90;6.30;;;;;;;39.52;21.55;100378.54;221630;1267;138585;-82
2023/06/19 11:31:02;;;;;;;8.80;5.80;;;;;;;39.39;22.47;100380.00;220957;1263;140236;-83
2023/06/19 11:36:03;;;;;;;9.30;6.50;;;;;;;39.96;22.12;100376.77;222797;1264;138381;-83
2023/06/19 11:41:03;;;;;;;8.90;5.80;;;;;;;40.21;21.91;100373.02;223069;1264;141915;-85
2023/06/19 11:46:06;;;;;;;8.10;6.20;;;;;;;40.53;21.77;100368.30;222297;1266;138346;-84
2023/06/19 11:51:07;;;;;;;10.20;6.00;;;;;;;40.82;22.04;100357.34;220080;1264;140098;-85
2023/06/19 11:56:09;;;;;;;9.90;6.00;;;;;;;40.62;20.48;100361.33;220290;1266;138747;-85
2023/06/19 12:01:09;;;;;;;10.70;6.50;;;;;;;40.14;20.99;100349.05;219675;1264;141168;-86
2023/06/19 12:06:10;;;;;;;9.60;6.80;;;;;;;40.35;21.70;100340.24;220235;1268;138192;-85
2023/06/19 12:11:10;;;;;;;10.10;5.80;;;;;;;39.71;21.07;100346.72;219518;1267;140043;-85
2023/06/19 12:16:11;;;;;;;8.40;6.10;;;;;;;39.23;21.52;100349.35;220239;1265;138294;-85
2023/06/19 12:21:12;;;;;;;9.20;6.30;;;;;;;39.22;21.60;100348.83;219861;1267;139694;-84
2023/06/19 12:26:12;;;;;;;9.70;5.90;;;;;;;38.93;20.49;100348.94;220144;1267;138136;-85
2023/06/19 12:31:13;;;;;;;7.80;5.50;;;;;;;38.47;21.89;100343.71;220020;1268;140860;-86
2023/06/19 12:36:14;;;;;;;10.10;6.00;;;;;;;38.68;21.56;100338.30;220541;1264;138112;-84
2023/06/19 12:41:15;;;;;;;8.40;5.90;;;;;;;38.17;21.29;100337.45;220114;1264;139923;-86
2023/06/19 12:46:15;;;;;;;8.40;5.40;;;;;;;38.03;22.32;100337.09;221406;1266;138358;-86
2023/06/19 12:51:18;;;;;;;9.40;5.90;;;;;;;38.21;24.04;100330.67;221081;1264;140095;-86
2023/06/19 12:56:18;;;;;;;7.70;5.90;;;;;;;38.79;23.40;100326.14;221292;1268;138075;-85
2023/06/19 13:01:18;;;;;;;9.90;6.50;;;;;;;39.04;23.75;100320.43;220991;1266;141734;-85
2023/06/19 13:06:19;;;;;;;8.50;6.00;;;;;;;39.05;23.13;100322.81;221144;1267;138209;-84
2023/06/19 13:11:19;;;;;;;10.40;7.00;;;;;;;38.43;23.38;100322.02;220696;1268;141677;-86
2023/06/19 13:16:20;;;;;;;10.70;6.30;;;;;;;37.85;23.03;100321.81;221344;1266;138323;-87
2023/06/19 13:21:20;;;;;;;7.70;5.80;;;;;;;37.55;24.87;100315.58;220676;1264;140119;-86
2023/06/19 13:26:23;;;;;;;9.40;6.40;;;;;;;37.48;24.63;100317.14;221287;1264;138234;-86
2023/06/19 13:31:23;;;;;;;11.30;6.20;;;;;;;37.29;23.65;100316.80;220854;1266;140117;-86
2023/06/19 13:36:26;;;;;;;10.50;5.60;;;;;;;36.82;24.18;100309.62;221546;1267;138270;-86
2023/06/19 13:41:28;;;;;;;8.00;5.80;;;;;;;36.37;25.01;100304.71;220723;1268;139919;-85
2023/06/19 13:46:31;;;;;;;10.30;6.60;;;;;;;36.18;23.79;100301.25;221350;1268;138239;-85
2023/06/19 13:51:32;;;;;;;10.10;6.00;;;;;;;35.68;24.98;100297.77;220641;1264;141854;-87
2023/06/19 13:56:33;;;;;;;9.90;5.90;;;;;;;35.57;25.15;100299.30;221337;1267;138292;-86
2023/06/19 14:01:33;;;;;;;12.10;6.50;;;;;;;35.26;24.57;100306.05;220585;1268;139163;-86
2023/06/19 14:06:34;;;;;;;9.60;5.90;;;;;;;35.03;25.48;100308.03;221466;1263;97143;-85
2023/06/19 14:11:35;;;;;;;10.00;6.00;;;;;;;35.07;25.27;100303.59;221071;1264;139498;-85
2023/06/19 14:16:35;;;;;;;10.60;5.60;;;;;;;34.89;24.15;100302.43;221042;1264;138640;-86
2023/06/19 14:21:36;;;;;;;8.80;5.60;;;;;;;34.83;25.58;100300.43;220808;1264;140517;-89
2023/06/19 14:26:36;;;;;;;9.30;6.00;;;;;;;34.93;24.42;100301.05;221529;1268;138395;-86
2023/06/19 14:31:36;;;;;;;8.50;6.00;;;;;;;34.81;25.05;100301.89;220844;1264;140711;-88
2023/06/19 14:36:38;;;;;;;8.50;5.10;;;;;;;34.91;25.19;100297.82;221847;1264;97930;-89
2023/06/19 14:41:38;;;;;;;7.70;5.10;;;;;;;34.92;25.39;100297.42;220789;1264;140169;-88
2023/06/19 14:46:39;;;;;;;11.60;5.30;;;;;;;35.05;26.18;100303.27;221374;1267;138812;-85
2023/06/19 14:51:39;;;;;;;8.70;5.40;;;;;;;34.96;25.18;100303.65;221093;1267;140405;-86
2023/06/19 14:56:40;;;;;;;8.80;5.60;;;;;;;34.92;26.03;100300.54;221619;1264;138140;-87
2023/06/19 15:01:40;;;;;;;9.30;5.50;;;;;;;34.66;25.68;100298.55;221330;1264;140125;-86
2023/06/19 15:06:41;;;;;;;8.50;5.20;;;;;;;34.43;24.78;100302.27;221844;1267;97954;-87
2023/06/19 15:11:41;;;;;;;8.30;5.50;;;;;;;34.21;25.14;100299.68;220807;1267;140041;-86
2023/06/19 15:16:42;;;;;;;9.90;5.10;;;;;;;34.10;25.68;100300.80;221354;1264;139506;-86
2023/06/19 15:21:42;;;;;;;9.20;5.50;;;;;;;33.99;26.12;100298.98;220780;1264;140451;-87
2023/06/19 15:26:43;;;;;;;8.80;5.80;;;;;;;33.79;26.56;100298.64;221518;1267;138774;-86
2023/06/19 15:31:43;;;;;;;8.40;5.40;;;;;;;33.59;27.15;100299.73;220629;1267;140308;-85
2023/06/19 15:36:44;;;;;;;7.80;4.70;;;;;;;33.48;26.39;100306.14;221236;1264;98613;-85
2023/06/19 15:41:45;;;;;;;7.90;5.40;;;;;;;33.35;26.59;100304.73;220903;1267;140755;-86
2023/06/19 15:46:45;;;;;;;8.80;5.20;;;;;;;32.96;25.60;100307.95;221268;1264;138156;-86
2023/06/19 15:51:46;;;;;;;8.90;5.30;;;;;;;32.73;28.64;100307.17;220762;1264;139469;-86
2023/06/19 15:56:47;;;;;;;10.00;5.40;;;;;;;32.65;28.09;100306.10;220901;1264;138443;-84
2023/06/19 16:01:47;;;;;;;9.20;5.50;;;;;;;32.38;27.00;100300.02;220824;1264;140060;-85
2023/06/19 16:06:48;;;;;;;8.70;5.70;;;;;;;32.14;27.54;100300.89;221443;1264;97683;-86
2023/06/19 16:11:50;;;;;;;9.50;6.40;;;;;;;31.93;28.88;100303.14;220935;1267;140862;-85
2023/06/19 16:16:50;;;;;;;10.10;5.80;;;;;;;31.70;27.88;100303.11;221454;1263;138513;-85
2023/06/19 16:21:51;;;;;;;8.60;5.60;;;;;;;31.20;27.62;100303.59;220912;1264;140153;-86
2023/06/19 16:26:51;;;;;;;11.10;5.50;;;;;;;30.93;28.53;100303.61;221288;1264;138125;-86
2023/06/19 16:31:52;;;;;;;10.30;6.50;;;;;;;30.76;29.46;100304.45;220730;1264;140903;-85
2023/06/19 16:36:52;;;;;;;10.10;6.10;;;;;;;30.60;29.07;100297.67;221413;1264;97938;-87
2023/06/19 16:41:52;;;;;;;9.40;5.10;;;;;;;30.49;29.48;100294.67;220707;1264;140310;-86
2023/06/19 16:46:53;;;;;;;12.10;5.60;;;;;;;30.45;31.60;100297.83;220984;1267;138176;-87
2023/06/19 16:51:53;;;;;;;9.50;5.30;;;;;;;30.32;29.65;100290.23;220880;1264;140282;-86
2023/06/19 16:56:54;;;;;;;8.10;5.20;;;;;;;30.04;30.74;100292.09;221407;1264;138127;-88
2023/06/19 17:01:54;;;;;;;9.40;4.80;;;;;;;29.93;31.46;100295.31;220738;1264;141236;-85
2023/06/19 17:06:54;;;;;;;7.40;4.80;;;;;;;29.91;31.59;100298.41;221522;1263;96621;-84
2023/06/19 17:11:55;;;;;;;8.20;5.20;;;;;;;29.84;33.19;100302.46;220742;1263;139960;-86
2023/06/19 17:16:55;;;;;;;10.80;6.10;;;;;;;29.77;34.02;100304.55;221064;1267;138175;-84
2023/06/19 17:21:56;;;;;;;12.10;5.60;;;;;;;29.61;34.36;100299.29;220759;1263;140430;-84
2023/06/19 17:26:57;;;;;;;8.20;5.00;;;;;;;29.50;34.43;100294.59;221161;1267;138881;-85
2023/06/19 17:31:57;;;;;;;10.60;5.50;;;;;;;29.43;35.04;100296.38;220501;1264;139686;-83
2023/06/19 17:36:58;;;;;;;8.60;5.40;;;;;;;29.32;34.97;100295.95;221166;1264;108488;-84
2023/06/19 17:41:58;;;;;;;8.90;5.10;;;;;;;29.25;35.46;100303.96;220719;1267;141735;-85
2023/06/19 17:46:58;;;;;;;8.70;5.10;;;;;;;29.19;35.54;100302.98;221300;1264;137942;-85
2023/06/19 17:51:59;;;;;;;10.60;5.60;;;;;;;29.08;35.45;100296.66;220701;1264;141093;-84
2023/06/19 17:56:59;;;;;;;8.50;5.40;;;;;;;28.88;35.96;100294.44;221039;1263;138949;-85
2023/06/19 18:02:00;;;;;;;9.80;5.40;;;;;;;28.71;36.48;100294.38;220487;1264;140886;-84
2023/06/19 18:07:00;;;;;;;10.20;5.40;;;;;;;28.58;36.95;100297.68;221272;1264;97616;-85
2023/06/19 18:12:01;;;;;;;10.20;4.90;;;;;;;28.45;36.83;100296.39;221038;1264;140270;-85
2023/06/19 18:17:03;;;;;;;10.20;5.50;;;;;;;28.31;36.94;100293.41;221565;1264;139340;-84
2023/06/19 18:22:04;;;;;;;12.10;5.40;;;;;;;28.17;37.30;100292.66;220677;1264;141928;-84
2023/06/19 18:27:06;;;;;;;11.00;6.10;;;;;;;28.03;37.57;100292.06;221253;1264;138307;-84
2023/06/19 18:32:07;;;;;;;12.70;6.00;;;;;;;27.86;37.84;100295.59;220718;1264;140204;-84
2023/06/19 18:37:07;;;;;;;9.80;6.00;;;;;;;27.72;37.95;100297.33;221452;1264;153330;-85
2023/06/19 18:42:07;;;;;;;10.50;6.00;;;;;;;27.50;38.04;100298.39;220811;1264;140912;-85
2023/06/19 18:47:08;;;;;;;13.50;7.90;;;;;;;27.23;38.69;100299.27;221366;1266;139080;-85
2023/06/19 18:52:11;;;;;;;11.00;6.00;;;;;;;27.04;39.28;100300.16;220579;1264;140610;-85
2023/06/19 18:57:11;;;;;;;8.40;5.50;;;;;;;26.86;39.70;100299.75;221542;1264;138462;-85
2023/06/19 19:02:11;;;;;;;10.60;5.80;;;;;;;26.68;40.30;100307.02;220752;1264;140206;-85
2023/06/19 19:07:12;;;;;;;10.40;6.30;;;;;;;26.49;40.41;100316.48;221319;1264;96770;-85
2023/06/19 19:12:16;;;;;;;8.50;5.30;;;;;;;26.28;40.45;100315.77;220902;1263;140654;-87
2023/06/19 19:17:16;;;;;;;13.00;5.90;;;;;;;26.06;40.60;100322.45;221386;1264;138591;-85
2023/06/19 19:22:17;;;;;;;11.30;6.70;;;;;;;25.80;40.67;100327.30;221001;1264;140237;-85
2023/06/19 19:27:18;;;;;;;9.90;6.00;;;;;;;25.52;40.90;100331.84;221273;1264;138512;-85
2023/06/19 19:32:20;;;;;;;9.20;5.90;;;;;;;25.32;41.57;100330.87;220686;1264;139339;-86
2023/06/19 19:37:27;;;;;;;10.70;5.80;;;;;;;25.14;42.77;100335.77;221426;1264;97931;-87
2023/06/19 19:42:28;;;;;;;11.20;6.40;;;;;;;24.94;43.33;100340.35;221210;1264;140253;-88
2023/06/19 19:47:28;;;;;;;12.60;7.60;;;;;;;24.75;43.51;100342.57;221649;1264;138727;-88
2023/06/19 19:52:30;;;;;;;10.20;6.70;;;;;;;24.59;43.92;100349.83;220874;1266;139531;-87
2023/06/19 19:57:30;;;;;;;11.20;6.60;;;;;;;24.51;43.79;100351.63;221764;1264;138673;-88
2023/06/19 20:02:31;;;;;;;12.00;6.60;;;;;;;24.39;44.18;100351.91;220756;1264;141151;-88
2023/06/19 20:07:31;;;;;;;10.20;6.40;;;;;;;24.25;45.24;100352.13;221310;1263;139367;-87
2023/06/19 20:12:31;;;;;;;11.90;8.00;;;;;;;24.18;44.86;100357.52;221232;1264;140915;-88
2023/06/19 20:17:32;;;;;;;12.70;7.40;;;;;;;24.08;45.48;100364.16;221947;1264;139310;-87
2023/06/19 20:22:32;;;;;;;10.60;7.70;;;;;;;23.98;46.08;100363.09;221243;1264;141212;-89
2023/06/19 20:27:32;;;;;;;14.10;7.70;;;;;;;23.86;46.51;100370.29;221644;1264;138653;-88
2023/06/19 20:32:33;;;;;;;10.80;6.30;;;;;;;23.71;47.08;100374.40;221081;1264;140624;-89
2023/06/19 20:37:33;;;;;;;10.40;6.60;;;;;;;23.63;46.92;100381.58;221469;1265;139236;-86
2023/06/19 20:42:34;;;;;;;12.20;7.40;;;;;;;23.57;47.39;100381.52;221096;1265;141108;-86
2023/06/19 20:47:34;;;;;;;9.30;5.90;;;;;;;23.49;47.46;100380.96;220830;1264;139335;-85
2023/06/19 20:52:35;;;;;;;10.90;6.90;;;;;;;23.43;48.48;100378.33;220572;1264;140326;-84
2023/06/19 20:57:35;;;;;;;9.50;6.70;;;;;;;23.36;49.38;100378.79;221115;1264;138681;-83
2023/06/19 21:02:39;;;;;;;10.30;7.10;;;;;;;23.32;50.27;100383.05;220279;1264;138868;-83
2023/06/19 21:07:40;;;;;;;11.60;7.50;;;;;;;23.18;51.05;100385.34;220229;1264;138583;-83
2023/06/19 21:12:40;;;;;;;11.30;7.30;;;;;;;23.02;51.52;100385.55;219722;1266;139322;-83
2023/06/19 21:17:40;;;;;;;12.10;7.50;;;;;;;22.95;50.78;100376.79;219990;1265;138739;-84
2023/06/19 21:22:41;;;;;;;12.60;7.90;;;;;;;22.83;52.55;100378.21;220038;1264;140008;-84
2023/06/19 21:27:41;;;;;;;11.50;7.90;;;;;;;22.68;53.99;100378.58;220285;1264;138282;-84
2023/06/19 21:32:42;;;;;;;11.50;7.70;;;;;;;22.48;54.26;100382.33;219722;1264;141328;-84
2023/06/19 21:37:42;;;;;;;12.80;9.00;;;;;;;22.24;54.56;100385.20;220532;1267;138392;-84
2023/06/19 21:42:42;;;;;;;12.80;9.20;;;;;;;22.06;55.41;100387.66;220013;1264;141475;-84
2023/06/19 21:47:43;;;;;;;13.30;8.50;;;;;;;21.93;56.53;100387.98;220295;1267;138904;-84
2023/06/19 21:52:43;;;;;;;12.30;7.70;;;;;;;21.81;57.30;100391.06;219688;1264;140290;-84
2023/06/19 21:57:43;;;;;;;13.60;9.70;;;;;;;21.73;57.46;100390.20;219830;1267;138626;-83
2023/06/19 22:02:44;;;;;;;15.80;9.50;;;;;;;21.64;58.29;100393.77;219486;1267;141404;-83
2023/06/19 22:07:44;;;;;;;11.90;9.50;;;;;;;21.59;58.90;100391.70;220021;1264;138864;-83
2023/06/19 22:12:45;;;;;;;14.30;10.50;;;;;;;21.53;59.46;100389.92;219561;1264;140558;-83
2023/06/19 22:17:45;;;;;;;14.40;9.50;;;;;;;21.46;60.10;100388.86;219946;1264;139397;-83
2023/06/19 22:22:47;;;;;;;14.20;10.10;;;;;;;21.45;60.41;100383.21;219540;1266;139993;-83
2023/06/19 22:27:50;;;;;;;14.50;11.30;;;;;;;21.45;60.47;100382.35;220008;1264;139046;-83
2023/06/19 22:32:50;;;;;;;13.80;9.40;;;;;;;21.42;61.65;100388.38;219310;1264;141028;-83
2023/06/19 22:37:50;;;;;;;14.00;10.20;;;;;;;21.41;61.29;100385.92;219812;1266;140356;-83
2023/06/19 22:42:51;;;;;;;14.40;9.60;;;;;;;21.40;61.59;100386.18;219535;1264;142947;-83
2023/06/19 22:47:51;;;;;;;16.20;10.50;;;;;;;21.37;61.56;100393.01;219740;1264;138409;-83
2023/06/19 22:52:52;;;;;;;15.10;11.10;;;;;;;21.36;61.08;100388.41;219565;1263;140694;-83
2023/06/19 22:57:52;;;;;;;15.00;10.40;;;;;;;21.36;61.27;100391.15;220060;1264;138468;-83
2023/06/19 23:02:53;;;;;;;14.50;10.10;;;;;;;21.37;61.52;100387.58;219354;1264;140863;-83
2023/06/19 23:07:55;;;;;;;15.20;11.10;;;;;;;21.38;61.54;100385.64;219693;1267;139280;-83
2023/06/19 23:12:55;;;;;;;18.70;11.60;;;;;;;21.40;61.94;100389.08;219611;1264;141517;-82
2023/06/19 23:17:56;;;;;;;14.90;11.00;;;;;;;21.41;62.35;100390.56;219862;1264;139761;-82
2023/06/19 23:22:56;;;;;;;15.60;12.30;;;;;;;21.42;62.03;100388.70;219547;1263;140318;-82
2023/06/19 23:27:57;;;;;;;18.10;12.20;;;;;;;21.45;61.67;100391.64;219891;1267;139204;-82